createdAt,value
2022-10-18T00:00:31.226Z,11.23
2022-10-18T00:03:17.586Z,11.29
2022-10-18T00:06:05.314Z,11.31
2022-10-18T00:08:51.589Z,11.45
2022-10-18T00:11:37.928Z,11.07
2022-10-18T00:14:24.202Z,11.20
2022-10-18T00:17:10.426Z,11.33
2022-10-18T00:19:56.681Z,11.34
2022-10-18T00:22:42.874Z,11.23
2022-10-18T00:25:29.450Z,11.36
2022-10-18T00:28:15.934Z,11.47
2022-10-18T00:31:12.929Z,11.56
2022-10-18T00:34:02.129Z,11.57
2022-10-18T00:36:48.307Z,11.58
2022-10-18T00:39:34.944Z,11.62
2022-10-18T00:42:25.128Z,11.62
2022-10-18T00:45:16.168Z,11.80
2022-10-18T00:48:04.528Z,11.74
2022-10-18T00:50:52.782Z,11.89
2022-10-18T00:53:39.725Z,12.02
2022-10-18T00:56:26.397Z,12.06
2022-10-18T00:59:17.967Z,11.95
2022-10-18T01:02:06.109Z,12.06
2022-10-18T01:04:52.630Z,11.95
2022-10-18T01:08:13.484Z,12.08
2022-10-18T01:11:35.142Z,12.20
2022-10-18T01:14:52.508Z,12.23
2022-10-18T01:17:51.106Z,12.11
2022-10-18T01:20:55.978Z,12.12
2022-10-18T01:24:07.030Z,12.23
2022-10-18T01:27:23.959Z,12.01
2022-10-18T01:30:19.629Z,12.17
2022-10-18T01:33:34.311Z,12.03
2022-10-18T01:36:32.976Z,12.23
2022-10-18T01:39:26.501Z,12.27
2022-10-18T01:42:17.585Z,12.13
2022-10-18T01:45:07.786Z,12.38
2022-10-18T01:47:55.236Z,12.41
2022-10-18T01:50:42.138Z,12.36
2022-10-18T01:53:31.674Z,12.44
2022-10-18T01:56:17.890Z,12.49
2022-10-18T01:59:17.301Z,12.48
2022-10-18T02:02:25.017Z,12.48
2022-10-18T02:05:40.106Z,12.50
2022-10-18T02:08:42.794Z,12.46
2022-10-18T02:11:32.070Z,12.43
2022-10-18T02:14:19.613Z,12.45
2022-10-18T02:17:10.681Z,12.43
2022-10-18T02:19:58.022Z,12.33
2022-10-18T02:22:47.319Z,12.63
2022-10-18T02:25:35.498Z,12.64
2022-10-18T02:28:22.143Z,12.52
2022-10-18T02:31:14.764Z,12.59
2022-10-18T02:34:35.208Z,12.52
2022-10-18T02:37:21.692Z,12.68
2022-10-18T02:40:10.142Z,12.53
2022-10-18T02:42:58.575Z,12.68
2022-10-18T02:45:44.896Z,12.57
2022-10-18T02:48:31.238Z,12.77
2022-10-18T02:51:17.466Z,12.63
2022-10-18T02:54:04.031Z,12.58
2022-10-18T02:56:50.581Z,12.66
2022-10-18T02:59:36.977Z,12.62
2022-10-18T03:02:23.668Z,12.41
2022-10-18T03:05:10.007Z,12.47
2022-10-18T03:07:59.308Z,12.38
2022-10-18T03:10:46.883Z,12.44
2022-10-18T03:13:34.241Z,12.43
2022-10-18T03:16:20.901Z,12.42
2022-10-18T03:19:07.350Z,12.40
2022-10-18T03:21:53.446Z,12.33
2022-10-18T03:24:39.824Z,12.40
2022-10-18T03:27:26.352Z,12.39
2022-10-18T03:30:13.695Z,12.16
2022-10-18T03:32:59.954Z,12.24
2022-10-18T03:35:46.082Z,12.18
2022-10-18T03:38:32.579Z,12.20
2022-10-18T03:41:18.726Z,12.05
2022-10-18T03:44:05.005Z,11.89
2022-10-18T03:46:51.371Z,11.84
2022-10-18T03:49:37.569Z,11.93
2022-10-18T03:52:23.998Z,11.88
2022-10-18T03:55:10.221Z,11.90
2022-10-18T03:57:56.634Z,11.85
2022-10-18T04:00:42.774Z,11.98
2022-10-18T04:03:29.299Z,12.03
2022-10-18T04:06:15.493Z,12.25
2022-10-18T04:09:03.235Z,12.27
2022-10-18T04:11:52.726Z,12.22
2022-10-18T04:14:38.867Z,12.39
2022-10-18T04:17:25.110Z,12.24
2022-10-18T04:20:12.028Z,12.26
2022-10-18T04:22:58.316Z,12.11
2022-10-18T04:25:44.428Z,12.13
2022-10-18T04:28:31.085Z,12.06
2022-10-18T04:31:17.530Z,12.11
2022-10-18T04:34:04.416Z,12.23
2022-10-18T04:36:50.890Z,12.00
2022-10-18T04:39:37.351Z,11.94
2022-10-18T04:42:24.415Z,12.13
2022-10-18T04:45:11.049Z,12.17
2022-10-18T04:47:57.418Z,11.88
2022-10-18T04:50:44.199Z,12.13
2022-10-18T04:53:33.561Z,12.05
2022-10-18T04:56:19.766Z,12.13
2022-10-18T04:59:05.787Z,12.04
2022-10-18T05:01:52.291Z,11.85
2022-10-18T05:04:38.581Z,11.95
2022-10-18T05:07:25.162Z,11.96
2022-10-18T05:10:11.435Z,11.83
2022-10-18T05:12:57.787Z,11.96
2022-10-18T05:15:46.688Z,11.95
2022-10-18T05:18:33.359Z,11.71
2022-10-18T05:21:19.453Z,11.97
2022-10-18T05:24:06.154Z,11.98
2022-10-18T05:26:52.617Z,11.98
2022-10-18T05:29:38.941Z,11.98
2022-10-18T05:32:25.555Z,11.82
2022-10-18T05:35:11.810Z,11.90
2022-10-18T05:37:57.978Z,11.79
2022-10-18T05:40:44.484Z,11.60
2022-10-18T05:43:31.014Z,11.69
2022-10-18T05:46:17.507Z,11.64
2022-10-18T05:49:03.944Z,11.58
2022-10-18T05:51:50.120Z,11.47
2022-10-18T05:54:36.350Z,11.55
2022-10-18T05:57:22.575Z,11.35
2022-10-18T06:00:09.828Z,11.56
2022-10-18T06:03:00.232Z,11.53
2022-10-18T06:05:46.847Z,11.73
2022-10-18T06:08:34.416Z,11.75
2022-10-18T06:11:21.102Z,11.68
2022-10-18T06:14:07.742Z,11.71
2022-10-18T06:16:54.019Z,12.03
2022-10-18T06:19:40.090Z,12.04
2022-10-18T06:22:26.076Z,12.24
2022-10-18T06:25:12.652Z,12.30
2022-10-18T06:27:58.885Z,12.43
2022-10-18T06:30:45.307Z,12.43
2022-10-18T06:33:33.133Z,12.61
2022-10-18T06:36:24.161Z,12.62
2022-10-18T06:39:10.680Z,12.64
2022-10-18T06:41:57.099Z,12.64
2022-10-18T06:44:43.834Z,12.65
2022-10-18T06:47:29.968Z,12.69
2022-10-18T06:50:16.610Z,12.86
2022-10-18T06:53:04.131Z,12.82
2022-10-18T06:55:50.496Z,12.85
2022-10-18T06:58:37.640Z,12.81
2022-10-18T07:01:24.283Z,12.69
2022-10-18T07:04:10.751Z,12.93
2022-10-18T07:06:56.950Z,12.97
2022-10-18T07:09:43.721Z,12.94
2022-10-18T07:12:31.362Z,13.05
2022-10-18T07:15:18.083Z,13.12
2022-10-18T07:18:04.505Z,13.11
2022-10-18T07:20:50.920Z,13.35
2022-10-18T07:23:39.404Z,13.44
2022-10-18T07:26:31.305Z,13.38
2022-10-18T07:29:17.901Z,13.42
2022-10-18T07:32:04.692Z,13.56
2022-10-18T07:34:50.782Z,13.50
2022-10-18T07:37:37.166Z,13.76
2022-10-18T07:40:23.687Z,13.96
2022-10-18T07:43:12.165Z,13.83
2022-10-18T07:46:01.369Z,13.95
2022-10-18T07:48:48.238Z,13.94
2022-10-18T07:51:35.975Z,14.16
2022-10-18T07:54:22.518Z,14.05
2022-10-18T07:57:08.957Z,14.17
2022-10-18T07:59:56.987Z,14.23
2022-10-18T08:02:43.403Z,14.01
2022-10-18T08:05:29.955Z,14.17
2022-10-18T08:08:16.431Z,14.34
2022-10-18T08:11:04.998Z,14.34
2022-10-18T08:13:52.913Z,14.46
2022-10-18T08:16:39.377Z,14.39
2022-10-18T08:19:25.492Z,14.60
2022-10-18T08:22:11.913Z,14.73
2022-10-18T08:24:58.410Z,14.62
2022-10-18T08:27:44.722Z,14.58
2022-10-18T08:30:31.122Z,14.65
2022-10-18T08:33:17.427Z,14.61
2022-10-18T08:36:05.969Z,14.50
2022-10-18T08:38:52.617Z,14.76
2022-10-18T08:42:17.210Z,14.90
2022-10-18T08:45:12.910Z,15.14
2022-10-18T08:48:35.469Z,15.31
2022-10-18T08:51:35.496Z,15.32
2022-10-18T08:54:37.769Z,15.33
2022-10-18T08:57:24.657Z,15.11
2022-10-18T09:00:25.623Z,15.38
2022-10-18T09:03:50.584Z,15.62
2022-10-18T09:06:39.718Z,15.78
2022-10-18T09:09:50.601Z,16.00
2022-10-18T09:12:52.455Z,15.87
2022-10-18T09:15:59.428Z,15.94
2022-10-18T09:19:06.576Z,16.11
2022-10-18T09:22:13.634Z,16.15
2022-10-18T09:25:14.156Z,16.26
2022-10-18T09:28:32.648Z,16.71
2022-10-18T09:31:27.482Z,16.71
2022-10-18T09:34:25.338Z,17.17
2022-10-18T09:37:14.583Z,17.53
2022-10-18T09:40:16.547Z,17.98
2022-10-18T09:43:17.884Z,17.99
2022-10-18T09:46:05.943Z,18.40
2022-10-18T09:49:03.632Z,19.12
2022-10-18T09:51:52.577Z,19.34
2022-10-18T09:54:45.410Z,19.60
2022-10-18T09:57:53.171Z,19.80
2022-10-18T10:00:48.053Z,19.96
2022-10-18T10:03:34.482Z,19.93
2022-10-18T10:06:27.917Z,20.16
2022-10-18T10:09:16.148Z,20.32
2022-10-18T10:12:02.406Z,20.19
2022-10-18T10:14:48.622Z,20.10
2022-10-18T10:17:35.092Z,19.87
2022-10-18T10:20:24.290Z,19.79
2022-10-18T10:23:26.951Z,20.01
2022-10-18T10:26:33.339Z,20.09
2022-10-18T10:29:46.532Z,19.95
2022-10-18T10:32:45.807Z,19.92
2022-10-18T10:38:42.582Z,19.87
2022-10-18T10:41:29.464Z,19.93
2022-10-18T10:44:19.111Z,20.01
2022-10-18T10:47:06.359Z,20.02
2022-10-18T10:49:56.248Z,19.84
2022-10-18T10:52:47.355Z,19.90
2022-10-18T10:55:35.797Z,20.13
2022-10-18T10:58:23.119Z,20.16
2022-10-18T11:01:21.639Z,20.29
2022-10-18T11:04:26.962Z,20.32
2022-10-18T11:07:39.262Z,20.52
2022-10-18T11:10:31.084Z,20.52
2022-10-18T11:14:07.199Z,20.34
2022-10-18T11:17:08.249Z,20.52
2022-10-18T11:20:12.945Z,20.60
2022-10-18T11:23:03.322Z,20.69
2022-10-18T11:25:57.598Z,20.65
2022-10-18T11:29:15.085Z,20.71
2022-10-18T11:32:18.813Z,20.76
2022-10-18T11:35:08.622Z,20.78
2022-10-18T11:38:22.007Z,20.67
2022-10-18T11:41:22.549Z,20.60
2022-10-18T11:44:35.587Z,20.66
2022-10-18T11:48:03.473Z,20.40
2022-10-18T11:50:49.798Z,20.30
2022-10-18T11:53:55.453Z,20.32
2022-10-18T11:56:44.706Z,20.55
2022-10-18T11:59:55.716Z,20.43
2022-10-18T12:03:23.865Z,20.65
2022-10-18T12:06:23.793Z,20.59
2022-10-18T12:09:31.065Z,20.73
2022-10-18T12:12:23.367Z,20.71
2022-10-18T12:15:23.084Z,20.70
2022-10-18T12:18:23.698Z,20.92
2022-10-18T12:21:12.078Z,20.82
2022-10-18T12:24:10.864Z,20.93
2022-10-18T12:27:00.378Z,20.96
2022-10-18T12:30:12.910Z,20.75
2022-10-18T12:33:28.129Z,20.95
2022-10-18T12:36:21.106Z,21.23
2022-10-18T12:39:16.569Z,21.27
2022-10-18T12:42:03.301Z,21.28
2022-10-18T12:45:00.407Z,21.33
2022-10-18T12:47:46.785Z,21.12
2022-10-18T12:50:39.616Z,21.08
2022-10-18T12:53:28.142Z,21.13
2022-10-18T12:56:29.782Z,21.17
2022-10-18T12:59:16.075Z,21.08
2022-10-18T13:02:05.219Z,21.14
2022-10-18T13:04:52.162Z,21.11
2022-10-18T13:07:43.041Z,21.27
2022-10-18T13:10:35.913Z,21.02
2022-10-18T13:13:39.774Z,21.13
2022-10-18T13:16:48.030Z,21.05
2022-10-18T13:19:44.738Z,21.48
2022-10-18T13:23:08.449Z,21.73
2022-10-18T13:26:18.507Z,21.87
2022-10-18T13:29:23.866Z,21.97
2022-10-18T13:32:22.520Z,21.62
2022-10-18T13:35:45.617Z,21.80
2022-10-18T13:38:50.317Z,21.66
2022-10-18T13:41:43.149Z,21.71
2022-10-18T13:44:40.425Z,21.55
2022-10-18T13:47:38.297Z,21.63
2022-10-18T13:50:36.370Z,21.63
2022-10-18T13:53:44.839Z,21.55
2022-10-18T13:56:59.168Z,21.38
2022-10-18T14:00:14.206Z,21.19
2022-10-18T14:03:43.964Z,21.01
2022-10-18T14:06:33.514Z,20.72
2022-10-18T14:09:40.301Z,20.56
2022-10-18T14:12:41.602Z,20.29
2022-10-18T14:15:39.625Z,20.11
2022-10-18T14:18:31.860Z,20.15
2022-10-18T14:21:31.439Z,19.96
2022-10-18T14:24:22.427Z,19.82
2022-10-18T14:27:20.412Z,19.94
2022-10-18T14:30:12.768Z,19.98
2022-10-18T14:32:59.574Z,19.98
2022-10-18T14:35:59.594Z,20.14
2022-10-18T14:38:58.739Z,20.10
2022-10-18T14:41:53.695Z,20.26
2022-10-18T14:44:40.140Z,20.22
2022-10-18T14:47:28.412Z,20.33
2022-10-18T14:50:30.506Z,20.16
2022-10-18T14:53:21.873Z,20.03
2022-10-18T14:56:21.357Z,20.07
2022-10-18T14:59:21.408Z,20.06
2022-10-18T15:02:32.087Z,20.10
2022-10-18T15:05:25.080Z,19.89
2022-10-18T15:08:11.298Z,19.73
2022-10-18T15:10:57.774Z,19.84
2022-10-18T15:13:49.918Z,19.67
2022-10-18T15:16:38.657Z,19.62
2022-10-18T15:19:36.198Z,19.64
2022-10-18T15:22:32.334Z,19.70
2022-10-18T15:25:32.098Z,19.53
2022-10-18T15:28:32.599Z,19.65
2022-10-18T15:31:31.819Z,19.57
2022-10-18T15:34:27.591Z,19.47
2022-10-18T15:37:40.320Z,19.47
2022-10-18T15:40:33.953Z,19.40
2022-10-18T15:43:23.175Z,19.34
2022-10-18T15:46:31.170Z,19.16
2022-10-18T15:49:44.914Z,19.17
2022-10-18T15:52:37.791Z,18.93
2022-10-18T15:55:30.618Z,18.95
2022-10-18T15:58:25.374Z,18.95
2022-10-18T16:01:22.356Z,18.85
2022-10-18T16:04:26.456Z,18.74
2022-10-18T16:07:13.034Z,18.73
2022-10-18T16:09:59.490Z,18.67
2022-10-18T16:12:46.155Z,18.56
2022-10-18T16:15:32.749Z,18.54
2022-10-18T16:18:20.340Z,18.45
2022-10-18T16:21:06.764Z,18.31
2022-10-18T16:23:53.410Z,18.16
2022-10-18T16:26:39.683Z,18.06
2022-10-18T16:29:28.591Z,17.97
2022-10-18T16:32:14.929Z,17.96
2022-10-18T16:35:01.510Z,17.92
2022-10-18T16:37:47.954Z,17.90
2022-10-18T16:40:37.664Z,17.85
2022-10-18T16:43:27.458Z,17.69
2022-10-18T16:46:27.299Z,17.58
2022-10-18T16:49:23.903Z,17.69
2022-10-18T16:52:10.656Z,17.48
2022-10-18T16:54:57.003Z,17.59
2022-10-18T16:57:43.593Z,17.45
2022-10-18T17:00:29.827Z,17.31
2022-10-18T17:03:16.350Z,17.12
2022-10-18T17:06:02.767Z,17.50
2022-10-18T17:08:49.890Z,17.29
2022-10-18T17:11:36.084Z,17.39
2022-10-18T17:14:22.231Z,17.34
2022-10-18T17:17:12.400Z,17.40
2022-10-18T17:19:58.814Z,17.34
2022-10-18T17:22:45.231Z,17.49
2022-10-18T17:28:22.475Z,17.61
2022-10-18T17:31:08.649Z,17.49
2022-10-18T17:33:55.303Z,17.44
2022-10-18T17:36:41.685Z,17.21
2022-10-18T17:39:28.230Z,17.29
2022-10-18T17:42:14.663Z,17.31
2022-10-18T17:45:01.066Z,17.25
2022-10-18T17:47:48.051Z,17.17
2022-10-18T17:50:34.217Z,17.09
2022-10-18T17:53:22.851Z,16.80
2022-10-18T17:56:10.635Z,16.69
2022-10-18T17:58:56.741Z,16.35
2022-10-18T18:01:43.255Z,16.27
2022-10-18T18:04:29.343Z,15.98
2022-10-18T18:07:15.558Z,15.94
2022-10-18T18:10:02.645Z,15.73
2022-10-18T18:12:49.085Z,15.53
2022-10-18T18:15:35.542Z,15.54
2022-10-18T18:18:22.091Z,15.50
2022-10-18T18:21:08.282Z,15.37
2022-10-18T18:23:55.264Z,15.17
2022-10-18T18:26:41.967Z,15.29
2022-10-18T18:29:29.198Z,15.09
2022-10-18T18:32:15.749Z,15.10
2022-10-18T18:35:01.898Z,14.74
2022-10-18T18:37:50.346Z,14.90
2022-10-18T18:40:36.902Z,14.96
2022-10-18T18:43:23.635Z,14.89
2022-10-18T18:46:10.839Z,14.99
2022-10-18T18:48:58.234Z,14.95
2022-10-18T18:51:44.820Z,14.89
2022-10-18T18:54:31.650Z,14.80
2022-10-18T18:57:18.099Z,14.76
2022-10-18T19:00:05.459Z,14.73
2022-10-18T19:02:51.781Z,14.51
2022-10-18T19:05:38.155Z,14.62
2022-10-18T19:08:24.846Z,14.63
2022-10-18T19:11:14.781Z,14.35
2022-10-18T19:14:02.524Z,14.71
2022-10-18T19:16:51.121Z,14.66
2022-10-18T19:19:40.892Z,14.47
2022-10-18T19:22:27.174Z,14.28
2022-10-18T19:25:13.546Z,14.29
2022-10-18T19:27:59.725Z,14.24
2022-10-18T19:30:50.030Z,13.93
2022-10-18T19:33:48.615Z,14.03
2022-10-18T19:36:45.646Z,13.98
2022-10-18T19:39:34.693Z,13.88
2022-10-18T19:42:24.224Z,13.93
2022-10-18T19:45:12.586Z,13.72
2022-10-18T19:47:58.924Z,13.66
2022-10-18T19:50:45.437Z,13.71
2022-10-18T19:53:32.514Z,13.54
2022-10-18T19:56:21.818Z,13.60
2022-10-18T19:59:09.140Z,13.52
2022-10-18T20:01:55.295Z,13.29
2022-10-18T20:04:41.670Z,13.27
2022-10-18T20:07:28.584Z,13.26
2022-10-18T20:10:15.194Z,13.13
2022-10-18T20:13:01.489Z,13.10
2022-10-18T20:15:51.446Z,13.26
2022-10-18T20:18:37.668Z,13.10
2022-10-18T20:21:25.012Z,13.17
2022-10-18T20:24:11.831Z,13.05
2022-10-18T20:26:58.446Z,12.95
2022-10-18T20:29:44.656Z,13.05
2022-10-18T20:32:31.306Z,12.71
2022-10-18T20:35:17.695Z,12.92
2022-10-18T20:38:04.570Z,12.91
2022-10-18T20:40:51.059Z,12.89
2022-10-18T20:43:37.780Z,12.70
2022-10-18T20:46:25.471Z,12.77
2022-10-18T20:49:15.449Z,12.75
2022-10-18T20:52:02.043Z,12.68
2022-10-18T20:54:48.422Z,12.64
2022-10-18T20:57:36.585Z,12.64
2022-10-18T21:00:23.224Z,12.48
2022-10-18T21:03:09.350Z,12.41
2022-10-18T21:05:55.882Z,12.20
2022-10-18T21:08:43.463Z,12.36
2022-10-18T21:11:34.276Z,12.47
2022-10-18T21:14:22.450Z,12.44
2022-10-18T21:17:08.658Z,12.37
2022-10-18T21:19:55.250Z,12.29
2022-10-18T21:22:41.579Z,12.12
2022-10-18T21:25:28.121Z,12.28
2022-10-18T21:28:17.934Z,12.28
2022-10-18T21:31:12.876Z,12.20
2022-10-18T21:34:02.239Z,12.27
2022-10-18T21:36:48.942Z,12.38
2022-10-18T21:39:35.130Z,12.25
2022-10-18T21:42:21.390Z,12.21
2022-10-18T21:45:08.065Z,12.10
2022-10-18T21:47:54.469Z,12.03
2022-10-18T21:50:40.934Z,11.84
2022-10-18T21:53:27.301Z,11.78
2022-10-18T21:56:16.402Z,12.03
2022-10-18T21:59:04.054Z,12.15
2022-10-18T22:01:52.208Z,12.14
2022-10-18T22:04:40.810Z,12.09
2022-10-18T22:07:27.064Z,12.05
2022-10-18T22:10:13.354Z,11.88
2022-10-18T22:13:00.099Z,11.96
2022-10-18T22:15:46.502Z,11.77
2022-10-18T22:18:33.822Z,11.92
2022-10-18T22:21:20.781Z,11.69
2022-10-18T22:24:08.889Z,11.88
2022-10-18T22:26:55.530Z,11.63
2022-10-18T22:29:41.688Z,11.86
2022-10-18T22:32:28.031Z,11.75
2022-10-18T22:35:14.265Z,11.77
2022-10-18T22:38:00.344Z,11.98
2022-10-18T22:40:46.714Z,11.91
2022-10-18T22:43:34.898Z,11.78
2022-10-18T22:46:21.102Z,11.43
2022-10-18T22:49:07.849Z,11.60
2022-10-18T22:51:54.219Z,11.48
2022-10-18T22:54:40.573Z,11.40
2022-10-18T22:57:26.510Z,11.42
2022-10-18T23:00:13.550Z,11.40
2022-10-18T23:02:59.641Z,11.58
2022-10-18T23:05:46.818Z,11.77
2022-10-18T23:08:33.401Z,11.82
2022-10-18T23:11:20.229Z,11.85
2022-10-18T23:14:07.323Z,11.90
2022-10-18T23:16:54.477Z,11.98
2022-10-18T23:19:40.998Z,12.02
2022-10-18T23:22:27.034Z,11.85
2022-10-18T23:25:13.557Z,11.56
2022-10-18T23:27:59.760Z,11.59
2022-10-18T23:30:46.065Z,11.55
2022-10-18T23:33:32.627Z,11.48
2022-10-18T23:36:19.077Z,11.29
2022-10-18T23:39:06.182Z,11.31
2022-10-18T23:41:52.413Z,11.26
2022-10-18T23:44:38.814Z,11.17
2022-10-18T23:47:25.125Z,11.25
2022-10-18T23:50:11.602Z,10.99
2022-10-18T23:52:57.800Z,11.06
2022-10-18T23:55:58.352Z,10.81
2022-10-18T23:58:45.264Z,10.87
